sensor_id;sensor_type;location;lat;lon;timestamp;pressure;altitude;pressure_sealevel;temperature;humidity
44127;BME280;29786;50.798;7.302;2023-03-18T00:01:27;98580;;;10.06;100
44127;BME280;29786;50.798;7.302;2023-03-18T00:06:24;98580;;;9.99;100
44127;BME280;29786;50.798;7.302;2023-03-18T00:07:38;98590;;;10;100
44127;BME280;29786;50.798;7.302;2023-03-18T00:12:35;98580;;;10.14;100
44127;BME280;29786;50.798;7.302;2023-03-18T00:17:31;98580;;;10.1;100
44127;BME280;29786;50.798;7.302;2023-03-18T00:22:36;98590;;;10.12;100
44127;BME280;29786;50.798;7.302;2023-03-18T00:27:33;98590;;;10.21;100
44127;BME280;29786;50.798;7.302;2023-03-18T00:32:29;98600;;;10.22;100
44127;BME280;29786;50.798;7.302;2023-03-18T00:37:25;98600;;;10.14;100
44127;BME280;29786;50.798;7.302;2023-03-18T00:43:37;98600;;;10.14;100
44127;BME280;29786;50.798;7.302;2023-03-18T00:48:33;98600;;;10.14;100
44127;BME280;29786;50.798;7.302;2023-03-18T00:53:29;98590;;;10.1;100
44127;BME280;29786;50.798;7.302;2023-03-18T00:58:26;98590;;;10.08;100
44127;BME280;29786;50.798;7.302;2023-03-18T01:04:36;98590;;;10.14;100
44127;BME280;29786;50.798;7.302;2023-03-18T01:09:33;98580;;;10.14;100
44127;BME280;29786;50.798;7.302;2023-03-18T01:14:29;98590;;;10.08;100
44127;BME280;29786;50.798;7.302;2023-03-18T01:19:26;98580;;;10.04;100
44127;BME280;29786;50.798;7.302;2023-03-18T01:25:37;98570;;;9.91;100
44127;BME280;29786;50.798;7.302;2023-03-18T01:30:33;98580;;;10;100
44127;BME280;29786;50.798;7.302;2023-03-18T01:35:31;98570;;;9.83;100
44127;BME280;29786;50.798;7.302;2023-03-18T01:40:27;98580;;;9.68;100
44127;BME280;29786;50.798;7.302;2023-03-18T01:46:39;98580;;;9.82;100
44127;BME280;29786;50.798;7.302;2023-03-18T01:51:33;98580;;;9.68;100
44127;BME280;29786;50.798;7.302;2023-03-18T01:56:30;98560;;;9.51;100
44127;BME280;29786;50.798;7.302;2023-03-18T02:01:28;98580;;;9.42;100
44127;BME280;29786;50.798;7.302;2023-03-18T02:07:39;98570;;;9.49;100
44127;BME280;29786;50.798;7.302;2023-03-18T02:12:35;98560;;;9.46;100
44127;BME280;29786;50.798;7.302;2023-03-18T02:17:32;98560;;;9.31;100
44127;BME280;29786;50.798;7.302;2023-03-18T02:22:44;98550;;;9.16;100
44127;BME280;29786;50.798;7.302;2023-03-18T02:28:37;98540;;;9.22;100
44127;BME280;29786;50.798;7.302;2023-03-18T02:33:35;98550;;;9.08;100
44127;BME280;29786;50.798;7.302;2023-03-18T02:38:31;98530;;;8.92;100
44127;BME280;29786;50.798;7.302;2023-03-18T02:43:29;98550;;;9.05;100
44127;BME280;29786;50.798;7.302;2023-03-18T02:49:38;98550;;;8.95;100
44127;BME280;29786;50.798;7.302;2023-03-18T02:54:34;98560;;;9.12;100
44127;BME280;29786;50.798;7.302;2023-03-18T02:59:31;98540;;;9.1;100
44127;BME280;29786;50.798;7.302;2023-03-18T03:04:27;98550;;;9.02;100
44127;BME280;29786;50.798;7.302;2023-03-18T03:10:38;98560;;;8.79;100
44127;BME280;29786;50.798;7.302;2023-03-18T03:15:35;98550;;;8.7;100
44127;BME280;29786;50.798;7.302;2023-03-18T03:20:32;98530;;;8.53;100
44127;BME280;29786;50.798;7.302;2023-03-18T03:25:28;98550;;;8.64;100
44127;BME280;29786;50.798;7.302;2023-03-18T03:30:24;98560;;;8.51;100
44127;BME280;29786;50.798;7.302;2023-03-18T03:36:35;98570;;;8.39;100
44127;BME280;29786;50.798;7.302;2023-03-18T03:46:28;98580;;;8.26;100
44127;BME280;29786;50.798;7.302;2023-03-18T03:51:24;98590;;;8.14;100
44127;BME280;29786;50.798;7.302;2023-03-18T03:57:36;98590;;;8.18;100
44127;BME280;29786;50.798;7.302;2023-03-18T04:02:32;98600;;;8.26;100
44127;BME280;29786;50.798;7.302;2023-03-18T04:07:28;98600;;;8.38;100
44127;BME280;29786;50.798;7.302;2023-03-18T04:12:25;98610;;;8.47;100
44127;BME280;29786;50.798;7.302;2023-03-18T04:18:35;98620;;;8.42;100
44127;BME280;29786;50.798;7.302;2023-03-18T04:23:32;98630;;;8.43;100
44127;BME280;29786;50.798;7.302;2023-03-18T04:28:28;98630;;;8.33;100
44127;BME280;29786;50.798;7.302;2023-03-18T04:33:25;98640;;;8.42;100
44127;BME280;29786;50.798;7.302;2023-03-18T04:39:36;98640;;;8.68;100
44127;BME280;29786;50.798;7.302;2023-03-18T04:44:32;98650;;;8.47;100
44127;BME280;29786;50.798;7.302;2023-03-18T04:49:29;98650;;;8.54;100
44127;BME280;29786;50.798;7.302;2023-03-18T04:54:25;98660;;;8.84;100
44127;BME280;29786;50.798;7.302;2023-03-18T05:00:36;98660;;;8.74;100
44127;BME280;29786;50.798;7.302;2023-03-18T05:05:32;98660;;;8.63;100
44127;BME280;29786;50.798;7.302;2023-03-18T05:10:29;98670;;;8.85;100
44127;BME280;29786;50.798;7.302;2023-03-18T05:15:26;98660;;;8.93;100
44127;BME280;29786;50.798;7.302;2023-03-18T05:21:36;98650;;;8.88;100
44127;BME280;29786;50.798;7.302;2023-03-18T05:26:33;98660;;;8.96;100
44127;BME280;29786;50.798;7.302;2023-03-18T05:31:29;98660;;;9.08;100
44127;BME280;29786;50.798;7.302;2023-03-18T05:36:26;98660;;;9.16;100
44127;BME280;29786;50.798;7.302;2023-03-18T05:42:37;98660;;;9.2;100
44127;BME280;29786;50.798;7.302;2023-03-18T05:47:33;98660;;;9.14;100
44127;BME280;29786;50.798;7.302;2023-03-18T05:52:29;98660;;;9.14;100
44127;BME280;29786;50.798;7.302;2023-03-18T05:57:26;98660;;;9.16;100
44127;BME280;29786;50.798;7.302;2023-03-18T06:03:37;98670;;;9.26;100
44127;BME280;29786;50.798;7.302;2023-03-18T06:08:33;98680;;;9.26;100
44127;BME280;29786;50.798;7.302;2023-03-18T06:13:30;98680;;;9.31;100
44127;BME280;29786;50.798;7.302;2023-03-18T06:18:26;98690;;;9.35;100
44127;BME280;29786;50.798;7.302;2023-03-18T06:24:37;98700;;;9.42;100
44127;BME280;29786;50.798;7.302;2023-03-18T06:29:33;98700;;;9.41;100
44127;BME280;29786;50.798;7.302;2023-03-18T06:34:30;98700;;;9.28;100
44127;BME280;29786;50.798;7.302;2023-03-18T06:39:27;98700;;;9.34;100
44127;BME280;29786;50.798;7.302;2023-03-18T06:45:37;98710;;;9.39;100
44127;BME280;29786;50.798;7.302;2023-03-18T06:50:34;98710;;;9.67;100
44127;BME280;29786;50.798;7.302;2023-03-18T06:55:30;98710;;;10.04;100
44127;BME280;29786;50.798;7.302;2023-03-18T07:00:27;98710;;;10.34;100
44127;BME280;29786;50.798;7.302;2023-03-18T07:06:37;98720;;;10.57;100
44127;BME280;29786;50.798;7.302;2023-03-18T07:11:34;98720;;;10.83;100
44127;BME280;29786;50.798;7.302;2023-03-18T07:16:30;98700;;;10.67;100
44127;BME280;29786;50.798;7.302;2023-03-18T07:21:27;98720;;;11.11;100
44127;BME280;29786;50.798;7.302;2023-03-18T07:26:24;98730;;;11.28;100
44127;BME280;29786;50.798;7.302;2023-03-18T07:32:35;98730;;;11.56;100
44127;BME280;29786;50.798;7.302;2023-03-18T07:37:31;98720;;;11.68;100
44127;BME280;29786;50.798;7.302;2023-03-18T07:42:27;98750;;;12.21;100
44127;BME280;29786;50.798;7.302;2023-03-18T07:47:24;98740;;;12.43;100
44127;BME280;29786;50.798;7.302;2023-03-18T07:53:34;98750;;;12.79;100
44127;BME280;29786;50.798;7.302;2023-03-18T07:57:17;98760;;;13.04;100
44127;BME280;29786;50.798;7.302;2023-03-18T07:58:31;98740;;;12.62;100
44127;BME280;29786;50.798;7.302;2023-03-18T08:03:28;98760;;;12.83;100
44127;BME280;29786;50.798;7.302;2023-03-18T08:08:25;98760;;;12.88;100
44127;BME280;29786;50.798;7.302;2023-03-18T08:14:35;98770;;;13.22;100
44127;BME280;29786;50.798;7.302;2023-03-18T08:24:28;98770;;;13.53;100
44127;BME280;29786;50.798;7.302;2023-03-18T08:29:24;98780;;;13.26;100
44127;BME280;29786;50.798;7.302;2023-03-18T08:35:35;98790;;;13.3;100
44127;BME280;29786;50.798;7.302;2023-03-18T08:40:32;98780;;;13.59;100
44127;BME280;29786;50.798;7.302;2023-03-18T08:45:28;98780;;;13.53;100
44127;BME280;29786;50.798;7.302;2023-03-18T08:50:25;98790;;;14.02;100
44127;BME280;29786;50.798;7.302;2023-03-18T08:56:36;98780;;;14.08;98.33
44127;BME280;29786;50.798;7.302;2023-03-18T09:01:32;98790;;;14.31;100
44127;BME280;29786;50.798;7.302;2023-03-18T09:06:28;98780;;;14.5;96.97
44127;BME280;29786;50.798;7.302;2023-03-18T09:11:25;98790;;;14.85;92.3
44127;BME280;29786;50.798;7.302;2023-03-18T09:17:36;98780;;;15.44;89.18
44127;BME280;29786;50.798;7.302;2023-03-18T09:22:32;98780;;;15.46;89.96
44127;BME280;29786;50.798;7.302;2023-03-18T09:27:29;98770;;;15.75;84.32
44127;BME280;29786;50.798;7.302;2023-03-18T09:32:25;98770;;;15.75;79.97
44127;BME280;29786;50.798;7.302;2023-03-18T09:38:36;98770;;;15.75;79.3
44127;BME280;29786;50.798;7.302;2023-03-18T09:45:18;98790;;;15.2;81.82
44127;BME280;29786;50.798;7.302;2023-03-18T09:48:38;98770;;;15.16;84.93
44127;BME280;29786;50.798;7.302;2023-03-18T09:53:28;98770;;;15.63;80.11
44127;BME280;29786;50.798;7.302;2023-03-18T09:59:38;98780;;;15.86;78.83
44127;BME280;29786;50.798;7.302;2023-03-18T10:04:36;98780;;;15.64;76.89
44127;BME280;29786;50.798;7.302;2023-03-18T10:09:35;98790;;;15.82;74.75
44127;BME280;29786;50.798;7.302;2023-03-18T10:14:29;98780;;;15.67;76.62
44127;BME280;29786;50.798;7.302;2023-03-18T10:20:43;98770;;;15.86;72.04
44127;BME280;29786;50.798;7.302;2023-03-18T10:25:35;98770;;;16.48;70.6
44127;BME280;29786;50.798;7.302;2023-03-18T10:30:32;98780;;;16.04;70.3
44127;BME280;29786;50.798;7.302;2023-03-18T10:35:31;98780;;;16.19;72.46
44127;BME280;29786;50.798;7.302;2023-03-18T10:41:37;98790;;;16.25;66.04
44127;BME280;29786;50.798;7.302;2023-03-18T10:46:33;98780;;;15.85;70.45
44127;BME280;29786;50.798;7.302;2023-03-18T10:51:33;98780;;;16.24;70.7
44127;BME280;29786;50.798;7.302;2023-03-18T10:56:26;98770;;;16.5;68.66
44127;BME280;29786;50.798;7.302;2023-03-18T11:02:37;98780;;;17.43;61.29
44127;BME280;29786;50.798;7.302;2023-03-18T11:07:33;98780;;;17;64.55
44127;BME280;29786;50.798;7.302;2023-03-18T11:12:30;98770;;;17.33;61.31
44127;BME280;29786;50.798;7.302;2023-03-18T11:17:28;98780;;;16.7;58.88
44127;BME280;29786;50.798;7.302;2023-03-18T11:23:37;98780;;;16.76;58.64
44127;BME280;29786;50.798;7.302;2023-03-18T11:28:34;98780;;;16.53;60.8
44127;BME280;29786;50.798;7.302;2023-03-18T11:33:30;98790;;;16.16;63.47
44127;BME280;29786;50.798;7.302;2023-03-18T11:38:29;98790;;;16.2;60.55
44127;BME280;29786;50.798;7.302;2023-03-18T11:44:37;98780;;;17.37;57.61
44127;BME280;29786;50.798;7.302;2023-03-18T11:49:34;98780;;;17.95;55.87
44127;BME280;29786;50.798;7.302;2023-03-18T11:54:41;98770;;;17.27;55.61
44127;BME280;29786;50.798;7.302;2023-03-18T11:59:29;98780;;;17.49;56.22
44127;BME280;29786;50.798;7.302;2023-03-18T12:04:30;98780;;;18.51;54.51
44127;BME280;29786;50.798;7.302;2023-03-18T12:10:39;98760;;;18.2;53.31
44127;BME280;29786;50.798;7.302;2023-03-18T12:20:36;98760;;;18.85;52.78
44127;BME280;29786;50.798;7.302;2023-03-18T12:26:39;98760;;;19.2;51.38
44127;BME280;29786;50.798;7.302;2023-03-18T12:36:38;98740;;;18.34;52.38
44127;BME280;29786;50.798;7.302;2023-03-18T12:41:32;98760;;;18.49;52.2
44127;BME280;29786;50.798;7.302;2023-03-18T12:46:27;98740;;;18.08;53.22
44127;BME280;29786;50.798;7.302;2023-03-18T12:52:43;98740;;;19.45;52.07
44127;BME280;29786;50.798;7.302;2023-03-18T13:02:35;98730;;;20.24;50.66
44127;BME280;29786;50.798;7.302;2023-03-18T13:07:28;98720;;;19.54;50.25
44127;BME280;29786;50.798;7.302;2023-03-18T13:13:35;98730;;;19.41;52.59
44127;BME280;29786;50.798;7.302;2023-03-18T13:18:48;98720;;;19.82;51.66
44127;BME280;29786;50.798;7.302;2023-03-18T13:23:33;98730;;;19.76;50.98
44127;BME280;29786;50.798;7.302;2023-03-18T13:34:41;98720;;;21.62;47.44
44127;BME280;29786;50.798;7.302;2023-03-18T13:44:33;98720;;;19.16;54.4
44127;BME280;29786;50.798;7.302;2023-03-18T13:49:27;98720;;;17.95;60.42
44127;BME280;29786;50.798;7.302;2023-03-18T13:55:40;98720;;;17.04;68.02
44127;BME280;29786;50.798;7.302;2023-03-18T14:00:33;98720;;;18.52;62.39
44127;BME280;29786;50.798;7.302;2023-03-18T14:05:37;98710;;;18.26;64.08
44127;BME280;29786;50.798;7.302;2023-03-18T14:10:25;98710;;;17.44;65.82
44127;BME280;29786;50.798;7.302;2023-03-18T14:16:50;98700;;;17.02;70.12
44127;BME280;29786;50.798;7.302;2023-03-18T14:21:32;98700;;;16.86;73.36
44127;BME280;29786;50.798;7.302;2023-03-18T14:26:29;98690;;;17.12;70.5
44127;BME280;29786;50.798;7.302;2023-03-18T14:31:29;98690;;;17.04;68.83
44127;BME280;29786;50.798;7.302;2023-03-18T14:37:36;98680;;;16.71;66.77
44127;BME280;29786;50.798;7.302;2023-03-18T14:42:34;98680;;;16.93;66.66
44127;BME280;29786;50.798;7.302;2023-03-18T14:47:36;98680;;;17.89;60.79
44127;BME280;29786;50.798;7.302;2023-03-18T14:52:27;98680;;;17.91;59.74
44127;BME280;29786;50.798;7.302;2023-03-18T14:58:36;98680;;;17.94;59.8
44127;BME280;29786;50.798;7.302;2023-03-18T15:03:33;98670;;;20.73;51.74
44127;BME280;29786;50.798;7.302;2023-03-18T15:08:31;98670;;;19.08;55.03
44127;BME280;29786;50.798;7.302;2023-03-18T15:13:26;98660;;;19.49;53.78
44127;BME280;29786;50.798;7.302;2023-03-18T15:19:37;98650;;;19.16;54.12
44127;BME280;29786;50.798;7.302;2023-03-18T15:24:33;98660;;;18.78;55.74
44127;BME280;29786;50.798;7.302;2023-03-18T15:29:30;98650;;;23.59;44.51
44127;BME280;29786;50.798;7.302;2023-03-18T15:34:28;98640;;;24.97;41.01
44127;BME280;29786;50.798;7.302;2023-03-18T15:40:45;98640;;;26.34;38.3
44127;BME280;29786;50.798;7.302;2023-03-18T15:45:34;98650;;;25.45;37.84
44127;BME280;29786;50.798;7.302;2023-03-18T15:50:30;98650;;;23.69;41.25
44127;BME280;29786;50.798;7.302;2023-03-18T15:55:30;98650;;;23.21;41.75
44127;BME280;29786;50.798;7.302;2023-03-18T16:01:37;98650;;;22.73;41.86
44127;BME280;29786;50.798;7.302;2023-03-18T16:06:34;98650;;;20.86;44.96
44127;BME280;29786;50.798;7.302;2023-03-18T16:11:30;98650;;;20.86;47.15
44127;BME280;29786;50.798;7.302;2023-03-18T16:16:27;98650;;;21.03;45.72
44127;BME280;29786;50.798;7.302;2023-03-18T16:22:37;98660;;;17.96;51.56
44127;BME280;29786;50.798;7.302;2023-03-18T16:27:36;98660;;;17.59;53.67
44127;BME280;29786;50.798;7.302;2023-03-18T16:32:30;98650;;;17;55.57
44127;BME280;29786;50.798;7.302;2023-03-18T16:37:27;98680;;;16.66;57.31
44127;BME280;29786;50.798;7.302;2023-03-18T16:43:38;98680;;;16.28;60.43
44127;BME280;29786;50.798;7.302;2023-03-18T16:48:34;98690;;;16.33;60.12
44127;BME280;29786;50.798;7.302;2023-03-18T16:53:31;98670;;;17.06;57.54
44127;BME280;29786;50.798;7.302;2023-03-18T16:58:28;98690;;;20.28;48.11
44127;BME280;29786;50.798;7.302;2023-03-18T17:03:24;98690;;;22.12;43.84
44127;BME280;29786;50.798;7.302;2023-03-18T17:09:35;98700;;;21.28;44.48
44127;BME280;29786;50.798;7.302;2023-03-18T17:14:35;98690;;;19.99;47.33
44127;BME280;29786;50.798;7.302;2023-03-18T17:19:28;98710;;;18.29;50.82
44127;BME280;29786;50.798;7.302;2023-03-18T17:24:24;98710;;;16.9;55.29
44127;BME280;29786;50.798;7.302;2023-03-18T17:30:36;98710;;;15.98;59.71
44127;BME280;29786;50.798;7.302;2023-03-18T17:35:31;98720;;;15.43;63.13
44127;BME280;29786;50.798;7.302;2023-03-18T17:40:28;98720;;;15.11;64.83
44127;BME280;29786;50.798;7.302;2023-03-18T17:45:27;98730;;;14.8;64.19
44127;BME280;29786;50.798;7.302;2023-03-18T17:51:35;98730;;;14.49;66.39
44127;BME280;29786;50.798;7.302;2023-03-18T17:56:31;98740;;;14.48;65.35
44127;BME280;29786;50.798;7.302;2023-03-18T18:01:28;98740;;;14.23;66.8
44127;BME280;29786;50.798;7.302;2023-03-18T18:12:35;98740;;;13.93;68.77
44127;BME280;29786;50.798;7.302;2023-03-18T18:17:32;98740;;;13.74;71.69
44127;BME280;29786;50.798;7.302;2023-03-18T18:22:28;98750;;;13.55;72.73
44127;BME280;29786;50.798;7.302;2023-03-18T18:27:25;98740;;;13.62;73.23
44127;BME280;29786;50.798;7.302;2023-03-18T18:33:36;98750;;;13.53;73.58
44127;BME280;29786;50.798;7.302;2023-03-18T18:38:32;98750;;;13.32;76.26
44127;BME280;29786;50.798;7.302;2023-03-18T18:43:29;98760;;;13.01;82.62
44127;BME280;29786;50.798;7.302;2023-03-18T18:48:27;98760;;;12.96;86.09
44127;BME280;29786;50.798;7.302;2023-03-18T18:54:36;98760;;;12.73;89.65
44127;BME280;29786;50.798;7.302;2023-03-18T18:59:32;98760;;;12.67;90.76
44127;BME280;29786;50.798;7.302;2023-03-18T19:04:29;98760;;;12.72;90.29
44127;BME280;29786;50.798;7.302;2023-03-18T19:09:25;98760;;;12.74;87.5
44127;BME280;29786;50.798;7.302;2023-03-18T19:15:36;98760;;;12.76;90.04
44127;BME280;29786;50.798;7.302;2023-03-18T19:20:33;98760;;;12.87;87.41
44127;BME280;29786;50.798;7.302;2023-03-18T19:25:29;98770;;;12.63;87.4
44127;BME280;29786;50.798;7.302;2023-03-18T19:36:38;98780;;;12.84;86.81
44127;BME280;29786;50.798;7.302;2023-03-18T19:41:33;98780;;;13.19;78.54
44127;BME280;29786;50.798;7.302;2023-03-18T19:46:32;98780;;;13.35;76.18
44127;BME280;29786;50.798;7.302;2023-03-18T19:51:26;98790;;;13.29;73.13
44127;BME280;29786;50.798;7.302;2023-03-18T19:57:37;98790;;;13.38;73.46
44127;BME280;29786;50.798;7.302;2023-03-18T20:02:33;98780;;;13.31;73.41
44127;BME280;29786;50.798;7.302;2023-03-18T20:07:30;98790;;;13.34;71.28
44127;BME280;29786;50.798;7.302;2023-03-18T20:12:28;98800;;;13.35;71.62
44127;BME280;29786;50.798;7.302;2023-03-18T20:18:37;98800;;;13.35;72.32
44127;BME280;29786;50.798;7.302;2023-03-18T20:23:33;98800;;;13.18;74.88
44127;BME280;29786;50.798;7.302;2023-03-18T20:28:30;98800;;;13.08;76.07
44127;BME280;29786;50.798;7.302;2023-03-18T20:33:26;98800;;;12.81;80.26
44127;BME280;29786;50.798;7.302;2023-03-18T20:39:37;98810;;;12.59;80.86
44127;BME280;29786;50.798;7.302;2023-03-18T20:44:34;98810;;;12.66;82.54
44127;BME280;29786;50.798;7.302;2023-03-18T20:49:30;98810;;;12.69;79.87
44127;BME280;29786;50.798;7.302;2023-03-18T20:54:28;98810;;;12.49;84.6
44127;BME280;29786;50.798;7.302;2023-03-18T21:00:37;98820;;;12.41;85.25
44127;BME280;29786;50.798;7.302;2023-03-18T21:05:34;98820;;;12.41;87.3
44127;BME280;29786;50.798;7.302;2023-03-18T21:10:30;98800;;;12.39;86.8
44127;BME280;29786;50.798;7.302;2023-03-18T21:15:27;98820;;;12.39;86.16
44127;BME280;29786;50.798;7.302;2023-03-18T21:20:24;98830;;;12.57;85.17
44127;BME280;29786;50.798;7.302;2023-03-18T21:26:34;98820;;;12.47;88.45
44127;BME280;29786;50.798;7.302;2023-03-18T21:31:31;98800;;;12.34;87.32
44127;BME280;29786;50.798;7.302;2023-03-18T21:36:27;98810;;;12.51;87.68
44127;BME280;29786;50.798;7.302;2023-03-18T21:41:26;98810;;;12.5;87.28
44127;BME280;29786;50.798;7.302;2023-03-18T21:47:34;98810;;;12.52;87.06
44127;BME280;29786;50.798;7.302;2023-03-18T21:52:32;98790;;;12.39;86.73
44127;BME280;29786;50.798;7.302;2023-03-18T21:57:28;98800;;;12.47;86.55
44127;BME280;29786;50.798;7.302;2023-03-18T22:02:28;98810;;;12.52;86.14
44127;BME280;29786;50.798;7.302;2023-03-18T22:08:35;98810;;;12.19;89.25
44127;BME280;29786;50.798;7.302;2023-03-18T22:13:31;98820;;;12.19;89.62
44127;BME280;29786;50.798;7.302;2023-03-18T22:18:28;98810;;;12.2;90.75
44127;BME280;29786;50.798;7.302;2023-03-18T22:23:26;98800;;;12.09;91.16
44127;BME280;29786;50.798;7.302;2023-03-18T22:29:35;98800;;;12.23;89.91
44127;BME280;29786;50.798;7.302;2023-03-18T22:34:31;98800;;;12.19;90.88
44127;BME280;29786;50.798;7.302;2023-03-18T22:39:28;98800;;;12.15;91.5
44127;BME280;29786;50.798;7.302;2023-03-18T22:50:35;98800;;;12.02;93.68
44127;BME280;29786;50.798;7.302;2023-03-18T22:55:34;98800;;;12.04;94.09
44127;BME280;29786;50.798;7.302;2023-03-18T23:00:37;98800;;;11.96;95.04
44127;BME280;29786;50.798;7.302;2023-03-18T23:05:25;98800;;;12.07;94.5
44127;BME280;29786;50.798;7.302;2023-03-18T23:11:36;98800;;;12.07;94.46
44127;BME280;29786;50.798;7.302;2023-03-18T23:16:32;98800;;;12.03;95.89
44127;BME280;29786;50.798;7.302;2023-03-18T23:21:29;98800;;;12.01;95.04
44127;BME280;29786;50.798;7.302;2023-03-18T23:26:25;98800;;;12.04;94.97
44127;BME280;29786;50.798;7.302;2023-03-18T23:32:36;98800;;;12;96.18
44127;BME280;29786;50.798;7.302;2023-03-18T23:37:32;98790;;;11.99;96.48
44127;BME280;29786;50.798;7.302;2023-03-18T23:42:29;98790;;;11.96;96.71
44127;BME280;29786;50.798;7.302;2023-03-18T23:47:25;98800;;;11.9;98.43
44127;BME280;29786;50.798;7.302;2023-03-18T23:53:36;98800;;;11.84;98.36
44127;BME280;29786;50.798;7.302;2023-03-18T23:58:33;98790;;;11.97;97.55
